Time;durP1;ratioP1;P1;durP2;ratioP2;P2;SDS_P1;SDS_P2;PMS_P1;PMS_P2;Temp;Humidity;BMP_temperature;BMP_pressure;BME280_temperature;BME280_humidity;BME280_pressure;Samples;Min_cycle;Max_cycle;Signal;HPM_P1;HPM_P2
2023/09/11 00:01:25;;;;;;;18.40;11.73;;;;;;;;;;5071676;28;20273;-81
2023/09/11 00:03:54;;;;;;;12.47;11.27;;;;;;;;;;5071621;28;20212;-82
2023/09/11 00:06:22;;;;;;;14.00;11.00;;;;;;;;;;5071042;28;20210;-82
2023/09/11 00:08:51;;;;;;;11.70;9.67;;;;;;;;;;5071476;28;20230;-83
2023/09/11 00:11:19;;;;;;;14.60;12.20;;;;;;;;;;5071733;28;20200;-83
2023/09/11 00:13:49;;;;;;;11.40;10.23;;;;;;;;;;5071353;28;20234;-83
2023/09/11 00:16:18;;;;;;;13.83;12.33;;;;;;;;;;5071228;28;20223;-83
2023/09/11 00:18:46;;;;;;;17.40;12.30;;;;;;;;;;5071384;28;20200;-83
2023/09/11 00:21:14;;;;;;;9.50;6.67;;;;;;;;;;5071097;28;20247;-83
2023/09/11 00:23:45;;;;;;;17.07;12.33;;;;;;;;;;5071183;28;20199;-83
2023/09/11 00:26:14;;;;;;;13.57;9.97;;;;;;;;;;5071319;28;20205;-83
2023/09/11 00:28:42;;;;;;;13.50;11.90;;;;;;;;;;5071359;28;20231;-83
2023/09/11 00:31:12;;;;;;;14.53;11.70;;;;;;;;;;5071451;28;20190;-83
2023/09/11 00:33:40;;;;;;;12.03;9.60;;;;;;;;;;5070805;28;20204;-83
2023/09/11 00:36:09;;;;;;;16.57;12.80;;;;;;;;;;5071014;28;20227;-83
2023/09/11 00:38:37;;;;;;;13.03;10.83;;;;;;;;;;5071436;28;20258;-83
2023/09/11 00:41:06;;;;;;;3.87;3.00;;;;;;;;;;5071519;28;20231;-82
2023/09/11 00:43:35;;;;;;;15.33;11.73;;;;;;;;;;5071227;28;20200;-82
2023/09/11 00:46:05;;;;;;;16.37;12.00;;;;;;;;;;5071488;28;20250;-82
2023/09/11 00:48:35;;;;;;;14.87;12.27;;;;;;;;;;5071634;28;20205;-82
2023/09/11 00:51:04;;;;;;;17.67;11.77;;;;;;;;;;5070653;28;20200;-82
2023/09/11 00:53:33;;;;;;;14.33;11.47;;;;;;;;;;5071499;28;20206;-82
2023/09/11 00:56:01;;;;;;;15.97;13.40;;;;;;;;;;5071185;28;20192;-83
2023/09/11 00:58:30;;;;;;;19.40;15.00;;;;;;;;;;5073691;28;20203;-82
2023/09/11 01:00:59;;;;;;;26.07;14.13;;;;;;;;;;5074620;28;20208;-82
2023/09/11 01:03:28;;;;;;;15.67;11.87;;;;;;;;;;5075256;28;20310;-82
2023/09/11 01:05:58;;;;;;;17.50;15.20;;;;;;;;;;5074749;28;20211;-82
2023/09/11 01:08:27;;;;;;;19.30;14.63;;;;;;;;;;5074895;28;20301;-82
2023/09/11 01:10:56;;;;;;;20.50;14.60;;;;;;;;;;5074767;28;20196;-82
2023/09/11 01:13:25;;;;;;;16.03;14.33;;;;;;;;;;5075262;28;20210;-82
2023/09/11 01:15:55;;;;;;;17.53;14.07;;;;;;;;;;5074629;28;20201;-82
2023/09/11 01:18:26;;;;;;;17.00;14.70;;;;;;;;;;5074326;28;20198;-82
2023/09/11 01:21:11;;;;;;;21.47;12.63;;;;;;;;;;5074185;28;20227;-82
2023/09/11 01:23:58;;;;;;;18.97;15.10;;;;;;;;;;5074546;28;20199;-82
2023/09/11 01:26:41;;;;;;;12.07;9.27;;;;;;;;;;5074069;28;20209;-82
2023/09/11 01:29:15;;;;;;;16.83;12.73;;;;;;;;;;5071720;28;20283;-82
2023/09/11 01:31:45;;;;;;;14.97;12.50;;;;;;;;;;5074172;28;20194;-82
2023/09/11 01:34:14;;;;;;;18.83;16.87;;;;;;;;;;5074150;28;20265;-83
2023/09/11 01:36:42;;;;;;;23.10;15.60;;;;;;;;;;5073516;28;20215;-83
2023/09/11 01:39:11;;;;;;;17.33;15.50;;;;;;;;;;5074159;28;20217;-83
2023/09/11 01:41:41;;;;;;;18.90;11.63;;;;;;;;;;5074066;28;20217;-83
2023/09/11 01:44:11;;;;;;;17.87;15.97;;;;;;;;;;5073821;28;20199;-83
2023/09/11 01:46:42;;;;;;;18.27;14.97;;;;;;;;;;5073576;28;20205;-83
2023/09/11 01:49:11;;;;;;;19.33;17.37;;;;;;;;;;5074160;28;20219;-83
2023/09/11 01:51:40;;;;;;;25.87;20.70;;;;;;;;;;5074230;28;20202;-83
2023/09/11 01:54:09;;;;;;;17.17;13.13;;;;;;;;;;5073422;28;20239;-83
2023/09/11 01:56:37;;;;;;;21.40;17.03;;;;;;;;;;5073496;28;20200;-82
2023/09/11 01:59:06;;;;;;;21.27;18.37;;;;;;;;;;5073492;28;20205;-83
2023/09/11 02:01:35;;;;;;;18.73;14.57;;;;;;;;;;5073554;28;20197;-82
2023/09/11 02:04:05;;;;;;;18.43;14.27;;;;;;;;;;5073098;28;20295;-83
2023/09/11 02:06:33;;;;;;;21.57;14.73;;;;;;;;;;5073676;28;20220;-83
2023/09/11 02:09:03;;;;;;;22.70;17.10;;;;;;;;;;5072780;28;20276;-82
2023/09/11 02:11:32;;;;;;;18.67;14.80;;;;;;;;;;5073740;28;20221;-82
2023/09/11 02:14:00;;;;;;;22.57;18.30;;;;;;;;;;5073373;28;20204;-82
2023/09/11 02:16:29;;;;;;;22.83;17.50;;;;;;;;;;5073681;28;20199;-82
2023/09/11 02:18:57;;;;;;;24.97;17.50;;;;;;;;;;5073335;28;20263;-82
2023/09/11 02:21:27;;;;;;;22.77;18.33;;;;;;;;;;5073121;28;20238;-81
2023/09/11 02:23:55;;;;;;;21.20;18.27;;;;;;;;;;5073371;28;20232;-82
2023/09/11 02:26:24;;;;;;;21.73;17.53;;;;;;;;;;5073383;28;20233;-82
2023/09/11 02:28:53;;;;;;;25.33;21.50;;;;;;;;;;5073574;28;20199;-82
2023/09/11 02:31:21;;;;;;;25.07;20.53;;;;;;;;;;5072904;28;20201;-82
2023/09/11 02:33:49;;;;;;;21.43;17.67;;;;;;;;;;5073223;28;20208;-82
2023/09/11 02:36:18;;;;;;;23.73;18.80;;;;;;;;;;5073185;28;20251;-82
2023/09/11 02:38:48;;;;;;;19.10;15.27;;;;;;;;;;5072903;28;20204;-82
2023/09/11 02:41:16;;;;;;;20.23;14.33;;;;;;;;;;5073365;28;20198;-82
2023/09/11 02:43:45;;;;;;;21.60;19.37;;;;;;;;;;5073083;28;20227;-82
2023/09/11 02:46:13;;;;;;;9.73;8.77;;;;;;;;;;5072931;28;20212;-82
2023/09/11 02:48:45;;;;;;;20.03;16.97;;;;;;;;;;5072272;28;20252;-82
2023/09/11 02:51:14;;;;;;;22.73;16.43;;;;;;;;;;5072601;28;20213;-82
2023/09/11 02:53:42;;;;;;;21.17;18.30;;;;;;;;;;5073041;28;20253;-82
2023/09/11 02:56:12;;;;;;;21.97;17.60;;;;;;;;;;5072464;28;20201;-82
2023/09/11 02:58:40;;;;;;;17.30;15.17;;;;;;;;;;5072337;28;20201;-82
2023/09/11 03:01:09;;;;;;;25.47;22.70;;;;;;;;;;5072715;28;20199;-82
2023/09/11 03:03:38;;;;;;;24.20;19.93;;;;;;;;;;5072413;28;20280;-82
2023/09/11 03:06:07;;;;;;;22.97;20.40;;;;;;;;;;5072375;28;20250;-82
2023/09/11 03:08:35;;;;;;;22.70;19.97;;;;;;;;;;5072326;28;20205;-82
2023/09/11 03:11:07;;;;;;;18.90;16.07;;;;;;;;;;5072632;28;20205;-83
2023/09/11 03:13:37;;;;;;;23.00;18.40;;;;;;;;;;5072639;28;20208;-83
2023/09/11 03:16:09;;;;;;;20.50;16.30;;;;;;;;;;5071226;28;20197;-83
2023/09/11 03:18:38;;;;;;;22.87;17.93;;;;;;;;;;5072211;28;20194;-83
2023/09/11 03:21:08;;;;;;;24.37;19.17;;;;;;;;;;5071663;28;20233;-83
2023/09/11 03:23:36;;;;;;;14.97;12.73;;;;;;;;;;5071726;28;20395;-82
2023/09/11 03:26:13;;;;;;;20.93;14.23;;;;;;;;;;5071869;28;20196;-83
2023/09/11 03:28:45;;;;;;;25.83;20.53;;;;;;;;;;5072221;28;20299;-83
2023/09/11 03:31:15;;;;;;;23.30;18.70;;;;;;;;;;5072152;28;20200;-83
2023/09/11 03:33:43;;;;;;;23.83;20.57;;;;;;;;;;5071625;28;20206;-83
2023/09/11 03:36:14;;;;;;;28.67;21.73;;;;;;;;;;5071629;28;20220;-83
2023/09/11 03:38:43;;;;;;;21.13;19.00;;;;;;;;;;5072017;28;20250;-83
2023/09/11 03:41:12;;;;;;;27.27;23.23;;;;;;;;;;5071950;28;20205;-83
2023/09/11 03:43:40;;;;;;;25.37;22.67;;;;;;;;;;5071391;28;20222;-83
2023/09/11 03:46:12;;;;;;;26.43;23.23;;;;;;;;;;5072171;28;20301;-83
2023/09/11 03:48:41;;;;;;;19.87;15.47;;;;;;;;;;5071953;28;20291;-82
2023/09/11 03:51:10;;;;;;;28.13;22.90;;;;;;;;;;5071619;28;20287;-83
2023/09/11 03:53:42;;;;;;;10.53;5.53;;;;;;;;;;5071668;28;20203;-83
2023/09/11 03:56:12;;;;;;;23.13;19.43;;;;;;;;;;5071685;28;20303;-83
2023/09/11 03:58:40;;;;;;;26.90;22.67;;;;;;;;;;5071669;28;20208;-83
2023/09/11 04:01:10;;;;;;;28.27;20.57;;;;;;;;;;5071460;28;20224;-83
2023/09/11 04:03:39;;;;;;;18.03;14.20;;;;;;;;;;5071171;28;20227;-83
2023/09/11 04:06:07;;;;;;;16.50;14.10;;;;;;;;;;5071552;28;20214;-83
2023/09/11 04:08:36;;;;;;;29.03;17.50;;;;;;;;;;5071622;28;20209;-82
2023/09/11 04:11:04;;;;;;;28.57;23.37;;;;;;;;;;5071888;28;20212;-82
2023/09/11 04:13:33;;;;;;;30.90;20.57;;;;;;;;;;5071648;28;20211;-82
2023/09/11 04:16:02;;;;;;;24.13;21.57;;;;;;;;;;5071764;28;20205;-82
2023/09/11 04:18:32;;;;;;;27.10;24.03;;;;;;;;;;5071560;28;20200;-83
2023/09/11 04:21:04;;;;;;;17.87;14.27;;;;;;;;;;5070978;28;20294;-83
2023/09/11 04:23:32;;;;;;;2.73;2.43;;;;;;;;;;5071612;28;20416;-83
2023/09/11 04:26:00;;;;;;;10.63;8.40;;;;;;;;;;5071427;28;20200;-83
2023/09/11 04:28:29;;;;;;;28.00;21.17;;;;;;;;;;5071046;28;20196;-82
2023/09/11 04:30:57;;;;;;;27.93;21.83;;;;;;;;;;5071573;28;20201;-81
2023/09/11 04:33:27;;;;;;;25.77;17.53;;;;;;;;;;5074013;28;20208;-82
2023/09/11 04:35:57;;;;;;;25.43;18.00;;;;;;;;;;5075313;28;20204;-82
2023/09/11 04:38:25;;;;;;;28.20;25.13;;;;;;;;;;5075362;28;20257;-82
2023/09/11 04:40:57;;;;;;;25.63;19.40;;;;;;;;;;5075394;28;20205;-82
2023/09/11 04:43:26;;;;;;;31.40;24.93;;;;;;;;;;5075259;28;20217;-82
2023/09/11 04:45:54;;;;;;;37.37;25.27;;;;;;;;;;5075144;28;20199;-82
2023/09/11 04:48:23;;;;;;;15.20;12.27;;;;;;;;;;5075256;28;20213;-82
2023/09/11 04:50:51;;;;;;;31.63;26.03;;;;;;;;;;5075780;28;20219;-82
2023/09/11 04:53:21;;;;;;;34.50;25.03;;;;;;;;;;5075254;28;20219;-82
2023/09/11 04:55:50;;;;;;;30.80;25.53;;;;;;;;;;5074920;28;20227;-82
2023/09/11 04:58:18;;;;;;;34.40;23.73;;;;;;;;;;5075105;28;20199;-81
2023/09/11 05:00:46;;;;;;;32.47;22.37;;;;;;;;;;5075115;28;20202;-82
2023/09/11 05:03:15;;;;;;;28.27;22.40;;;;;;;;;;5074416;28;20203;-82
2023/09/11 05:05:44;;;;;;;21.40;17.63;;;;;;;;;;5074434;28;20208;-82
2023/09/11 05:08:12;;;;;;;32.90;25.57;;;;;;;;;;5075166;28;20214;-82
2023/09/11 05:10:43;;;;;;;23.50;20.97;;;;;;;;;;5075046;28;20201;-82
2023/09/11 05:13:11;;;;;;;28.57;22.87;;;;;;;;;;5074670;28;20205;-82
2023/09/11 05:15:40;;;;;;;25.03;20.77;;;;;;;;;;5074348;28;20205;-83
2023/09/11 05:18:10;;;;;;;29.40;23.23;;;;;;;;;;5074782;28;20198;-83
2023/09/11 05:20:39;;;;;;;23.37;19.63;;;;;;;;;;5074418;28;20247;-83
2023/09/11 05:23:08;;;;;;;13.03;10.27;;;;;;;;;;5074006;28;20204;-83
2023/09/11 05:25:37;;;;;;;25.73;15.97;;;;;;;;;;5074137;28;20277;-83
2023/09/11 05:28:07;;;;;;;6.80;4.60;;;;;;;;;;5074240;28;20207;-83
2023/09/11 05:30:35;;;;;;;22.67;16.23;;;;;;;;;;5074108;28;20195;-83
2023/09/11 05:33:04;;;;;;;17.83;13.50;;;;;;;;;;5074089;28;20213;-83
2023/09/11 05:35:33;;;;;;;15.23;11.60;;;;;;;;;;5074509;28;20193;-83
2023/09/11 05:38:01;;;;;;;2.30;2.20;;;;;;;;;;5074862;28;20265;-83
2023/09/11 05:40:30;;;;;;;19.30;13.97;;;;;;;;;;5074260;28;20212;-83
2023/09/11 05:42:58;;;;;;;22.90;19.53;;;;;;;;;;5074499;28;20226;-84
2023/09/11 05:45:28;;;;;;;18.47;10.83;;;;;;;;;;5074089;28;20213;-81
2023/09/11 05:47:56;;;;;;;5.03;4.57;;;;;;;;;;5073808;28;20226;-81
2023/09/11 05:50:25;;;;;;;15.07;12.00;;;;;;;;;;5074290;28;20200;-81
2023/09/11 05:52:53;;;;;;;30.13;21.67;;;;;;;;;;5074236;28;20384;-83
2023/09/11 05:55:22;;;;;;;22.17;16.33;;;;;;;;;;5074636;28;20211;-83
2023/09/11 05:57:50;;;;;;;24.27;18.10;;;;;;;;;;5073841;28;20205;-83
2023/09/11 06:00:19;;;;;;;24.27;15.00;;;;;;;;;;5073860;28;20202;-81
2023/09/11 06:02:49;;;;;;;9.40;7.43;;;;;;;;;;5074287;28;20201;-81
2023/09/11 06:05:17;;;;;;;19.20;14.60;;;;;;;;;;5073591;28;20210;-81
2023/09/11 06:07:46;;;;;;;22.03;19.63;;;;;;;;;;5073653;28;20228;-81
2023/09/11 06:10:15;;;;;;;19.43;13.80;;;;;;;;;;5074220;28;20203;-81
2023/09/11 06:12:44;;;;;;;13.20;10.27;;;;;;;;;;5074096;28;20206;-81
2023/09/11 06:15:12;;;;;;;10.53;8.77;;;;;;;;;;5073505;28;20194;-81
2023/09/11 06:17:41;;;;;;;21.70;17.90;;;;;;;;;;5073383;28;20199;-81
2023/09/11 06:20:15;;;;;;;2.40;0.97;;;;;;;;;;5073842;28;20205;-81
2023/09/11 06:22:44;;;;;;;9.03;7.77;;;;;;;;;;5073791;28;20215;-81
2023/09/11 06:25:13;;;;;;;15.83;14.07;;;;;;;;;;5072628;28;20226;-81
2023/09/11 06:27:41;;;;;;;18.37;9.30;;;;;;;;;;5073811;28;20201;-81
2023/09/11 06:30:11;;;;;;;6.93;4.57;;;;;;;;;;5072964;28;20217;-81
2023/09/11 06:32:39;;;;;;;11.73;8.67;;;;;;;;;;5073108;28;20240;-82
2023/09/11 06:35:09;;;;;;;43.00;8.93;;;;;;;;;;5072238;28;20198;-82
2023/09/11 06:37:40;;;;;;;2.77;2.57;;;;;;;;;;5073148;28;20228;-79
2023/09/11 06:40:09;;;;;;;3.67;2.80;;;;;;;;;;5072979;28;20212;-81
2023/09/11 06:42:38;;;;;;;5.10;4.67;;;;;;;;;;5072730;28;20261;-81
2023/09/11 06:45:07;;;;;;;5.83;5.10;;;;;;;;;;5072764;28;20323;-81
2023/09/11 06:47:36;;;;;;;6.60;5.17;;;;;;;;;;5071986;28;20293;-81
2023/09/11 06:50:04;;;;;;;13.03;7.47;;;;;;;;;;5072696;28;20204;-83
2023/09/11 06:52:38;;;;;;;8.07;7.20;;;;;;;;;;5072108;28;20212;-82
2023/09/11 06:55:09;;;;;;;6.03;5.43;;;;;;;;;;5071780;28;20193;-82
2023/09/11 06:57:39;;;;;;;5.67;3.97;;;;;;;;;;5073107;28;20200;-82
2023/09/11 07:00:10;;;;;;;0.90;0.90;;;;;;;;;;5072438;28;20200;-82
2023/09/11 07:02:47;;;;;;;5.13;3.80;;;;;;;;;;5072203;28;20234;-83
2023/09/11 07:05:16;;;;;;;1.13;1.03;;;;;;;;;;5072302;28;20216;-82
2023/09/11 07:07:45;;;;;;;10.43;9.33;;;;;;;;;;5072638;28;20229;-82
2023/09/11 07:10:17;;;;;;;4.67;4.17;;;;;;;;;;5072041;28;20209;-82
2023/09/11 07:13:01;;;;;;;8.60;5.63;;;;;;;;;;5072470;28;20206;-82
2023/09/11 07:15:30;;;;;;;5.03;3.33;;;;;;;;;;5072472;28;20212;-82
2023/09/11 07:17:58;;;;;;;2.67;2.07;;;;;;;;;;5072059;28;20231;-82
2023/09/11 07:20:27;;;;;;;7.63;3.47;;;;;;;;;;5071662;28;20252;-83
2023/09/11 07:22:56;;;;;;;2.47;2.27;;;;;;;;;;5072090;28;20237;-83
2023/09/11 07:25:26;;;;;;;1.93;1.80;;;;;;;;;;5071805;28;20251;-83
2023/09/11 07:27:55;;;;;;;7.50;4.53;;;;;;;;;;5071852;28;20220;-83
2023/09/11 07:30:23;;;;;;;7.10;3.33;;;;;;;;;;5071588;28;20204;-82
2023/09/11 07:32:53;;;;;;;5.37;4.87;;;;;;;;;;5071966;28;20205;-83
2023/09/11 07:35:22;;;;;;;5.70;4.47;;;;;;;;;;5072020;28;20223;-82
2023/09/11 07:37:50;;;;;;;7.23;4.13;;;;;;;;;;5071578;28;20461;-83
2023/09/11 07:40:20;;;;;;;6.60;3.37;;;;;;;;;;5072035;28;20197;-82
2023/09/11 07:42:52;;;;;;;4.40;3.80;;;;;;;;;;5072008;28;20212;-82
2023/09/11 07:45:21;;;;;;;4.77;4.23;;;;;;;;;;5071471;28;20228;-82
2023/09/11 07:47:54;;;;;;;11.20;7.57;;;;;;;;;;5065760;28;20209;-84
2023/09/11 07:50:23;;;;;;;10.70;7.33;;;;;;;;;;5059755;28;20216;-86
2023/09/11 07:52:54;;;;;;;9.57;7.27;;;;;;;;;;5068448;28;20337;-85
2023/09/11 07:55:23;;;;;;;6.07;3.57;;;;;;;;;;5070276;28;20205;-86
2023/09/11 07:57:55;;;;;;;0.60;0.60;;;;;;;;;;5071042;28;20209;-85
2023/09/11 08:00:30;;;;;;;6.23;4.87;;;;;;;;;;5069475;28;20273;-86
2023/09/11 08:02:59;;;;;;;6.00;4.77;;;;;;;;;;5058769;28;20213;-85
2023/09/11 08:05:28;;;;;;;9.13;6.70;;;;;;;;;;5072860;28;20362;-84
2023/09/11 08:07:58;;;;;;;2.93;2.70;;;;;;;;;;5074420;28;20197;-85
2023/09/11 08:10:30;;;;;;;2.93;2.33;;;;;;;;;;5065367;28;20223;-84
2023/09/11 08:13:05;;;;;;;3.73;3.43;;;;;;;;;;5064887;28;20205;-84
2023/09/11 08:18:25;;;;;;;3.30;2.93;;;;;;;;;;5065647;28;20218;-85
2023/09/11 08:20:53;;;;;;;8.10;4.23;;;;;;;;;;5064569;28;20205;-84
2023/09/11 08:23:22;;;;;;;4.00;3.33;;;;;;;;;;5065787;28;20301;-84
2023/09/11 08:25:51;;;;;;;4.77;2.50;;;;;;;;;;5060778;28;20340;-86
2023/09/11 08:28:22;;;;;;;2.20;1.87;;;;;;;;;;5067133;28;20225;-85
2023/09/11 08:30:51;;;;;;;3.57;3.27;;;;;;;;;;5063968;28;20205;-85
2023/09/11 08:33:19;;;;;;;1.83;1.67;;;;;;;;;;5061634;28;20301;-85
2023/09/11 08:35:48;;;;;;;2.83;2.50;;;;;;;;;;5065116;28;20214;-86
2023/09/11 08:38:17;;;;;;;5.90;4.07;;;;;;;;;;5063493;28;20295;-86
2023/09/11 08:40:46;;;;;;;2.90;2.33;;;;;;;;;;5066047;28;20211;-85
2023/09/11 08:43:15;;;;;;;4.87;3.97;;;;;;;;;;5068299;28;20202;-85
2023/09/11 08:45:45;;;;;;;6.07;5.13;;;;;;;;;;5065195;28;20219;-87
2023/09/11 08:48:15;;;;;;;1.77;1.67;;;;;;;;;;5067440;28;20227;-86
2023/09/11 08:50:45;;;;;;;5.50;3.83;;;;;;;;;;5064304;28;20222;-84
2023/09/11 08:53:15;;;;;;;6.17;5.17;;;;;;;;;;5066569;28;20294;-86
2023/09/11 08:55:44;;;;;;;13.87;8.67;;;;;;;;;;5061830;28;20206;-86
2023/09/11 08:58:13;;;;;;;9.17;4.87;;;;;;;;;;5063170;28;20202;-85
2023/09/11 09:00:44;;;;;;;8.43;6.83;;;;;;;;;;5062685;28;20208;-85
2023/09/11 09:03:13;;;;;;;8.70;6.37;;;;;;;;;;5067694;28;20240;-85
2023/09/11 09:05:42;;;;;;;5.00;3.90;;;;;;;;;;5061974;28;20268;-86
2023/09/11 09:08:14;;;;;;;7.83;5.70;;;;;;;;;;5065293;28;20225;-86
2023/09/11 09:10:43;;;;;;;7.60;4.33;;;;;;;;;;5065535;28;20209;-86
2023/09/11 09:13:12;;;;;;;5.23;3.87;;;;;;;;;;5066394;28;20296;-85
2023/09/11 09:15:44;;;;;;;6.50;3.80;;;;;;;;;;5064452;28;20201;-88
2023/09/11 09:18:14;;;;;;;7.97;4.93;;;;;;;;;;5061102;28;20202;-87
2023/09/11 09:20:43;;;;;;;15.90;9.77;;;;;;;;;;5060189;28;20213;-86
2023/09/11 09:23:12;;;;;;;6.17;4.70;;;;;;;;;;5066626;28;20206;-85
2023/09/11 09:25:41;;;;;;;7.60;6.13;;;;;;;;;;5064760;28;20219;-86
2023/09/11 09:28:10;;;;;;;5.33;4.17;;;;;;;;;;5064679;28;20214;-87
2023/09/11 09:30:42;;;;;;;7.30;3.80;;;;;;;;;;5065541;28;20212;-86
2023/09/11 09:33:16;;;;;;;8.63;5.93;;;;;;;;;;5064181;28;20291;-86
2023/09/11 09:35:45;;;;;;;6.30;5.60;;;;;;;;;;5065752;28;20206;-86
2023/09/11 09:38:14;;;;;;;2.77;2.57;;;;;;;;;;5065340;28;20213;-86
2023/09/11 09:40:43;;;;;;;2.97;2.33;;;;;;;;;;5060906;28;20198;-85
2023/09/11 09:43:16;;;;;;;4.63;3.90;;;;;;;;;;5064971;28;20266;-84
2023/09/11 09:45:45;;;;;;;9.00;6.57;;;;;;;;;;5062790;28;20260;-84
2023/09/11 09:48:14;;;;;;;6.70;6.17;;;;;;;;;;5065258;28;20201;-84
2023/09/11 09:50:53;;;;;;;3.47;2.57;;;;;;;;;;5061363;28;20255;-84
2023/09/11 09:53:23;;;;;;;10.20;7.47;;;;;;;;;;5059618;28;20201;-86
2023/09/11 09:55:51;;;;;;;8.13;5.90;;;;;;;;;;5063952;28;20219;-87
2023/09/11 09:58:20;;;;;;;4.20;3.80;;;;;;;;;;5065939;28;20216;-88
2023/09/11 10:00:49;;;;;;;5.70;3.67;;;;;;;;;;5061476;28;20214;-87
2023/09/11 10:03:18;;;;;;;6.87;5.40;;;;;;;;;;5061644;28;20234;-86
2023/09/11 10:05:50;;;;;;;10.30;8.43;;;;;;;;;;5065403;28;20210;-87
2023/09/11 10:08:21;;;;;;;2.23;2.13;;;;;;;;;;5063425;28;20202;-87
2023/09/11 10:10:50;;;;;;;7.60;6.90;;;;;;;;;;5064346;28;20213;-87
2023/09/11 10:13:19;;;;;;;8.93;6.73;;;;;;;;;;5062930;28;20199;-87
2023/09/11 10:15:47;;;;;;;3.30;3.03;;;;;;;;;;5064257;28;20200;-87
2023/09/11 10:18:24;;;;;;;6.57;5.93;;;;;;;;;;5059408;28;20199;-88
2023/09/11 10:20:55;;;;;;;10.33;7.03;;;;;;;;;;5063582;28;20246;-86
2023/09/11 10:23:25;;;;;;;16.53;8.47;;;;;;;;;;5060654;28;20217;-86
2023/09/11 10:26:07;;;;;;;11.83;5.83;;;;;;;;;;5064221;28;20458;-86
2023/09/11 10:28:39;;;;;;;17.47;6.77;;;;;;;;;;5058525;28;20192;-85
2023/09/11 10:31:12;;;;;;;11.37;7.37;;;;;;;;;;5060877;28;20220;-87
2023/09/11 10:33:41;;;;;;;12.00;10.43;;;;;;;;;;5063715;28;20267;-86
2023/09/11 10:36:13;;;;;;;19.20;12.60;;;;;;;;;;5064920;28;20336;-87
2023/09/11 10:38:45;;;;;;;22.17;10.90;;;;;;;;;;5066672;28;20284;-86
2023/09/11 10:41:14;;;;;;;13.07;9.67;;;;;;;;;;5068167;28;20213;-85
2023/09/11 10:43:44;;;;;;;15.37;9.03;;;;;;;;;;5067135;28;20205;-85
2023/09/11 10:46:17;;;;;;;7.07;6.37;;;;;;;;;;5062398;28;20212;-85
2023/09/11 10:48:45;;;;;;;11.27;7.30;;;;;;;;;;5063109;28;20213;-87
2023/09/11 10:51:14;;;;;;;8.80;5.47;;;;;;;;;;5061817;28;20238;-86
2023/09/11 10:53:45;;;;;;;7.20;4.80;;;;;;;;;;5065049;28;20203;-85
2023/09/11 10:56:15;;;;;;;7.40;6.43;;;;;;;;;;5065659;28;20285;-85
2023/09/11 10:58:46;;;;;;;10.37;8.47;;;;;;;;;;5065097;28;20211;-85
2023/09/11 11:01:15;;;;;;;8.20;6.80;;;;;;;;;;5072468;28;20231;-85
2023/09/11 11:03:43;;;;;;;11.77;8.37;;;;;;;;;;5078372;28;20233;-85
2023/09/11 11:06:18;;;;;;;5.60;5.17;;;;;;;;;;5071042;28;20205;-84
2023/09/11 11:08:49;;;;;;;20.60;15.53;;;;;;;;;;5072233;28;20213;-84
2023/09/11 11:11:21;;;;;;;9.63;8.67;;;;;;;;;;5066330;28;20228;-84
2023/09/11 11:14:11;;;;;;;7.23;6.23;;;;;;;;;;5069089;28;20189;-84
2023/09/11 11:16:41;;;;;;;6.97;6.33;;;;;;;;;;5069011;28;20209;-84
2023/09/11 11:19:25;;;;;;;17.70;12.47;;;;;;;;;;5067326;28;20271;-85
2023/09/11 11:21:54;;;;;;;18.27;14.93;;;;;;;;;;5065480;28;20236;-85
2023/09/11 11:24:25;;;;;;;17.80;13.10;;;;;;;;;;5067449;28;20198;-85
2023/09/11 11:26:57;;;;;;;14.43;10.47;;;;;;;;;;5065629;28;20255;-85
2023/09/11 11:29:27;;;;;;;18.13;12.03;;;;;;;;;;5066521;28;20281;-84
2023/09/11 11:31:58;;;;;;;22.13;16.00;;;;;;;;;;5060823;28;20240;-84
2023/09/11 11:34:29;;;;;;;17.37;12.10;;;;;;;;;;5064925;28;20222;-85
2023/09/11 11:36:58;;;;;;;12.07;8.43;;;;;;;;;;5065472;28;20313;-84
2023/09/11 11:39:29;;;;;;;15.07;12.70;;;;;;;;;;5068963;28;20206;-85
2023/09/11 11:41:58;;;;;;;17.53;10.63;;;;;;;;;;5076313;28;20290;-84
2023/09/11 11:44:30;;;;;;;26.30;20.67;;;;;;;;;;5076068;28;20224;-84
2023/09/11 11:46:58;;;;;;;24.33;20.00;;;;;;;;;;5067997;28;20303;-84
2023/09/11 11:49:29;;;;;;;14.97;10.60;;;;;;;;;;5069192;28;20218;-84
2023/09/11 11:52:01;;;;;;;15.73;9.03;;;;;;;;;;5068515;28;20216;-84
2023/09/11 11:54:31;;;;;;;10.50;9.40;;;;;;;;;;5068040;28;20258;-88
2023/09/11 11:57:00;;;;;;;27.90;19.07;;;;;;;;;;5069670;28;20256;-87
2023/09/11 11:59:32;;;;;;;30.60;19.57;;;;;;;;;;5066769;28;20205;-86
2023/09/11 12:02:01;;;;;;;20.70;13.97;;;;;;;;;;5072270;28;20205;-86
2023/09/11 12:04:30;;;;;;;20.50;14.13;;;;;;;;;;5072100;28;20232;-87
2023/09/11 12:07:02;;;;;;;30.23;24.23;;;;;;;;;;5077416;28;20209;-87
2023/09/11 12:09:33;;;;;;;43.50;26.93;;;;;;;;;;5070289;28;20246;-85
2023/09/11 12:12:01;;;;;;;33.77;27.17;;;;;;;;;;5071088;28;20269;-86
2023/09/11 12:14:30;;;;;;;26.53;17.37;;;;;;;;;;5059625;28;20202;-84
2023/09/11 12:16:59;;;;;;;16.97;10.87;;;;;;;;;;5076263;28;20210;-85
2023/09/11 12:19:35;;;;;;;33.13;23.53;;;;;;;;;;5064863;28;20288;-85
2023/09/11 12:22:04;;;;;;;27.67;15.93;;;;;;;;;;5072966;28;20248;-84
2023/09/11 12:24:34;;;;;;;30.60;17.57;;;;;;;;;;5074601;28;20206;-84
2023/09/11 12:27:07;;;;;;;22.63;16.47;;;;;;;;;;5062933;28;20299;-84
2023/09/11 12:29:36;;;;;;;31.23;19.43;;;;;;;;;;5066564;28;20213;-84
2023/09/11 12:32:05;;;;;;;33.13;21.90;;;;;;;;;;5070968;28;20269;-84
2023/09/11 12:34:46;;;;;;;27.93;14.30;;;;;;;;;;5063182;28;20214;-84
2023/09/11 12:37:15;;;;;;;17.33;10.03;;;;;;;;;;5066131;28;20241;-84
2023/09/11 12:39:45;;;;;;;23.00;16.43;;;;;;;;;;5058135;28;20214;-84
2023/09/11 12:42:13;;;;;;;32.53;17.53;;;;;;;;;;5062946;28;20214;-83
2023/09/11 12:44:42;;;;;;;16.63;11.77;;;;;;;;;;5065876;28;20255;-84
2023/09/11 12:47:11;;;;;;;7.73;6.70;;;;;;;;;;5081829;28;20211;-83
2023/09/11 12:49:39;;;;;;;23.17;13.03;;;;;;;;;;5064106;28;20436;-84
2023/09/11 12:52:08;;;;;;;37.90;23.83;;;;;;;;;;5071288;28;20204;-84
2023/09/11 12:54:37;;;;;;;13.87;9.17;;;;;;;;;;5066783;28;20230;-84
2023/09/11 12:57:07;;;;;;;8.77;5.47;;;;;;;;;;5074230;28;20200;-84
2023/09/11 12:59:36;;;;;;;17.70;10.07;;;;;;;;;;5069324;28;20208;-84
2023/09/11 13:02:06;;;;;;;32.93;18.87;;;;;;;;;;5073984;28;20201;-84
2023/09/11 13:04:35;;;;;;;24.43;13.23;;;;;;;;;;5079932;28;20209;-84
2023/09/11 13:07:03;;;;;;;12.80;8.80;;;;;;;;;;5067888;28;20197;-84
2023/09/11 13:09:35;;;;;;;13.20;7.53;;;;;;;;;;5068260;28;20223;-84
2023/09/11 13:12:05;;;;;;;16.83;9.73;;;;;;;;;;5072062;28;20201;-84
2023/09/11 13:14:36;;;;;;;20.77;14.07;;;;;;;;;;5073593;28;20224;-84
2023/09/11 13:17:05;;;;;;;38.70;23.47;;;;;;;;;;5076327;28;20239;-84
2023/09/11 13:19:33;;;;;;;18.27;12.53;;;;;;;;;;5081724;28;20204;-83
2023/09/11 13:22:02;;;;;;;24.37;16.10;;;;;;;;;;5070170;28;20233;-84
2023/09/11 13:24:31;;;;;;;14.30;9.67;;;;;;;;;;5071668;28;20213;-84
2023/09/11 13:27:00;;;;;;;16.03;10.20;;;;;;;;;;5072956;28;20201;-84
2023/09/11 13:29:28;;;;;;;8.23;7.50;;;;;;;;;;5070897;28;20235;-84
2023/09/11 13:31:58;;;;;;;22.03;15.10;;;;;;;;;;5078257;28;20202;-84
2023/09/11 13:34:26;;;;;;;19.93;13.83;;;;;;;;;;5076300;28;20212;-83
2023/09/11 13:36:58;;;;;;;19.07;8.00;;;;;;;;;;5074198;28;20227;-84
2023/09/11 13:39:27;;;;;;;31.80;20.00;;;;;;;;;;5070047;28;20219;-83
2023/09/11 13:41:55;;;;;;;15.67;10.37;;;;;;;;;;5054799;28;20301;-83
2023/09/11 13:44:24;;;;;;;24.10;13.60;;;;;;;;;;5054823;28;20200;-83
2023/09/11 13:46:54;;;;;;;9.60;8.60;;;;;;;;;;5067322;28;20214;-83
2023/09/11 13:49:24;;;;;;;7.27;5.97;;;;;;;;;;5073539;28;20220;-83
2023/09/11 13:51:53;;;;;;;16.27;9.20;;;;;;;;;;5074699;28;20288;-83
2023/09/11 13:54:21;;;;;;;13.47;8.53;;;;;;;;;;5071777;28;20234;-83
2023/09/11 13:56:50;;;;;;;12.27;9.23;;;;;;;;;;5073846;28;20197;-83
2023/09/11 13:59:18;;;;;;;15.87;10.50;;;;;;;;;;5071830;28;20229;-83
2023/09/11 14:01:47;;;;;;;5.27;4.67;;;;;;;;;;5074659;28;20201;-83
2023/09/11 14:04:17;;;;;;;5.93;4.83;;;;;;;;;;5074191;28;20207;-83
2023/09/11 14:06:47;;;;;;;10.57;7.07;;;;;;;;;;5073153;28;20211;-83
2023/09/11 14:09:16;;;;;;;12.17;10.00;;;;;;;;;;5071833;28;20236;-82
2023/09/11 14:11:47;;;;;;;20.27;13.63;;;;;;;;;;5075324;28;20302;-82
2023/09/11 14:14:15;;;;;;;16.00;9.73;;;;;;;;;;5061131;28;20294;-82
2023/09/11 14:16:44;;;;;;;11.77;8.37;;;;;;;;;;5057372;28;20216;-83
2023/09/11 14:19:12;;;;;;;13.07;8.33;;;;;;;;;;5062716;28;20205;-82
2023/09/11 14:21:41;;;;;;;16.33;9.90;;;;;;;;;;5072026;28;20236;-82
2023/09/11 14:24:11;;;;;;;9.23;6.67;;;;;;;;;;5072878;28;20205;-82
2023/09/11 14:26:40;;;;;;;14.67;8.93;;;;;;;;;;5074216;28;20380;-82
2023/09/11 14:29:08;;;;;;;23.40;17.20;;;;;;;;;;5072819;28;20216;-82
2023/09/11 14:31:37;;;;;;;9.73;6.17;;;;;;;;;;5072608;28;20376;-82
2023/09/11 14:34:07;;;;;;;6.37;3.90;;;;;;;;;;5071763;28;20200;-82
2023/09/11 14:36:35;;;;;;;9.17;7.27;;;;;;;;;;5072605;28;20215;-82
2023/09/11 14:39:04;;;;;;;3.93;2.43;;;;;;;;;;5070625;28;20197;-82
2023/09/11 14:41:34;;;;;;;12.63;8.67;;;;;;;;;;5052834;28;20229;-82
2023/09/11 14:44:03;;;;;;;5.93;3.70;;;;;;;;;;5053564;28;20513;-82